sensor_id;sensor_type;location;lat;lon;timestamp;P1;durP1;ratioP1;P2;durP2;ratioP2
35326;SDS011;21436;52.348;20.928;2022-08-01T00:00:46;11.80;;;5.95;;
35326;SDS011;21436;52.348;20.928;2022-08-01T00:03:14;10.57;;;5.78;;
35326;SDS011;21436;52.348;20.928;2022-08-01T00:05:42;11.35;;;6.45;;
35326;SDS011;21436;52.348;20.928;2022-08-01T00:08:11;9.20;;;5.90;;
35326;SDS011;21436;52.348;20.928;2022-08-01T00:10:38;10.00;;;6.30;;
35326;SDS011;21436;52.348;20.928;2022-08-01T00:13:06;8.20;;;5.57;;
35326;SDS011;21436;52.348;20.928;2022-08-01T00:15:36;12.18;;;5.70;;
35326;SDS011;21436;52.348;20.928;2022-08-01T00:18:03;11.93;;;5.80;;
35326;SDS011;21436;52.348;20.928;2022-08-01T00:20:31;7.82;;;5.68;;
35326;SDS011;21436;52.348;20.928;2022-08-01T00:22:58;11.77;;;6.45;;
35326;SDS011;21436;52.348;20.928;2022-08-01T00:25:28;9.95;;;5.30;;
35326;SDS011;21436;52.348;20.928;2022-08-01T00:28:00;7.15;;;5.65;;
35326;SDS011;21436;52.348;20.928;2022-08-01T00:30:30;9.32;;;5.30;;
35326;SDS011;21436;52.348;20.928;2022-08-01T00:32:58;9.90;;;5.82;;
35326;SDS011;21436;52.348;20.928;2022-08-01T00:35:25;8.02;;;4.97;;
35326;SDS011;21436;52.348;20.928;2022-08-01T00:37:53;9.80;;;5.85;;
35326;SDS011;21436;52.348;20.928;2022-08-01T00:40:21;9.68;;;5.68;;
35326;SDS011;21436;52.348;20.928;2022-08-01T00:42:49;10.80;;;6.07;;
35326;SDS011;21436;52.348;20.928;2022-08-01T00:45:16;9.05;;;6.03;;
35326;SDS011;21436;52.348;20.928;2022-08-01T00:47:44;10.85;;;6.43;;
35326;SDS011;21436;52.348;20.928;2022-08-01T00:50:11;9.25;;;6.35;;
35326;SDS011;21436;52.348;20.928;2022-08-01T00:52:40;10.43;;;5.93;;
35326;SDS011;21436;52.348;20.928;2022-08-01T00:55:08;10.60;;;6.28;;
35326;SDS011;21436;52.348;20.928;2022-08-01T00:57:41;8.40;;;5.68;;
35326;SDS011;21436;52.348;20.928;2022-08-01T01:00:29;10.90;;;5.80;;
35326;SDS011;21436;52.348;20.928;2022-08-01T01:03:01;13.07;;;6.75;;
35326;SDS011;21436;52.348;20.928;2022-08-01T01:05:28;11.55;;;5.88;;
35326;SDS011;21436;52.348;20.928;2022-08-01T01:08:04;8.35;;;5.68;;
35326;SDS011;21436;52.348;20.928;2022-08-01T01:10:50;14.73;;;6.28;;
35326;SDS011;21436;52.348;20.928;2022-08-01T01:13:57;10.98;;;6.35;;
35326;SDS011;21436;52.348;20.928;2022-08-01T01:16:29;9.40;;;6.90;;
35326;SDS011;21436;52.348;20.928;2022-08-01T01:19:00;8.65;;;6.45;;
35326;SDS011;21436;52.348;20.928;2022-08-01T01:29:56;9.02;;;6.82;;
35326;SDS011;21436;52.348;20.928;2022-08-01T01:32:39;11.95;;;6.78;;
35326;SDS011;21436;52.348;20.928;2022-08-01T01:35:14;9.88;;;6.93;;
35326;SDS011;21436;52.348;20.928;2022-08-01T01:37:44;9.82;;;6.28;;
35326;SDS011;21436;52.348;20.928;2022-08-01T01:40:13;7.22;;;5.95;;
35326;SDS011;21436;52.348;20.928;2022-08-01T01:42:42;9.45;;;6.32;;
35326;SDS011;21436;52.348;20.928;2022-08-01T01:45:10;14.20;;;6.75;;
35326;SDS011;21436;52.348;20.928;2022-08-01T01:47:38;16.13;;;6.22;;
35326;SDS011;21436;52.348;20.928;2022-08-01T01:50:07;12.98;;;7.00;;
35326;SDS011;21436;52.348;20.928;2022-08-01T01:52:35;12.88;;;6.57;;
35326;SDS011;21436;52.348;20.928;2022-08-01T01:55:05;11.85;;;6.95;;
35326;SDS011;21436;52.348;20.928;2022-08-01T01:57:40;8.40;;;7.10;;
35326;SDS011;21436;52.348;20.928;2022-08-01T02:00:09;10.75;;;6.88;;
35326;SDS011;21436;52.348;20.928;2022-08-01T02:02:38;10.63;;;6.68;;
35326;SDS011;21436;52.348;20.928;2022-08-01T02:05:06;10.52;;;6.82;;
35326;SDS011;21436;52.348;20.928;2022-08-01T02:07:36;14.65;;;6.93;;
35326;SDS011;21436;52.348;20.928;2022-08-01T02:10:05;12.00;;;6.63;;
35326;SDS011;21436;52.348;20.928;2022-08-01T02:12:33;14.15;;;7.20;;
35326;SDS011;21436;52.348;20.928;2022-08-01T02:15:03;14.93;;;6.90;;
35326;SDS011;21436;52.348;20.928;2022-08-01T02:17:32;14.10;;;6.85;;
35326;SDS011;21436;52.348;20.928;2022-08-01T02:20:00;10.32;;;6.22;;
35326;SDS011;21436;52.348;20.928;2022-08-01T02:22:40;9.68;;;6.40;;
35326;SDS011;21436;52.348;20.928;2022-08-01T02:25:54;12.35;;;6.90;;
35326;SDS011;21436;52.348;20.928;2022-08-01T02:28:06;10.10;;;6.72;;
35326;SDS011;21436;52.348;20.928;2022-08-01T02:30:36;14.77;;;7.82;;
35326;SDS011;21436;52.348;20.928;2022-08-01T02:33:07;14.52;;;8.07;;
35326;SDS011;21436;52.348;20.928;2022-08-01T02:35:42;14.20;;;7.90;;
35326;SDS011;21436;52.348;20.928;2022-08-01T02:38:32;15.98;;;7.28;;
35326;SDS011;21436;52.348;20.928;2022-08-01T02:41:04;11.90;;;7.47;;
35326;SDS011;21436;52.348;20.928;2022-08-01T02:43:40;11.00;;;7.20;;
35326;SDS011;21436;52.348;20.928;2022-08-01T02:46:29;14.70;;;7.78;;
35326;SDS011;21436;52.348;20.928;2022-08-01T02:49:09;11.40;;;7.55;;
35326;SDS011;21436;52.348;20.928;2022-08-01T02:51:37;14.57;;;8.02;;
35326;SDS011;21436;52.348;20.928;2022-08-01T02:54:07;13.73;;;7.82;;
35326;SDS011;21436;52.348;20.928;2022-08-01T02:56:35;10.70;;;7.85;;
35326;SDS011;21436;52.348;20.928;2022-08-01T02:59:05;12.32;;;7.88;;
35326;SDS011;21436;52.348;20.928;2022-08-01T03:01:34;12.23;;;8.10;;
35326;SDS011;21436;52.348;20.928;2022-08-01T03:04:04;12.57;;;7.75;;
35326;SDS011;21436;52.348;20.928;2022-08-01T03:06:32;11.80;;;8.20;;
35326;SDS011;21436;52.348;20.928;2022-08-01T03:09:01;17.75;;;8.27;;
35326;SDS011;21436;52.348;20.928;2022-08-01T03:11:31;16.00;;;8.38;;
35326;SDS011;21436;52.348;20.928;2022-08-01T03:14:01;12.95;;;8.60;;
35326;SDS011;21436;52.348;20.928;2022-08-01T03:16:32;12.40;;;8.20;;
35326;SDS011;21436;52.348;20.928;2022-08-01T03:19:00;14.18;;;8.52;;
35326;SDS011;21436;52.348;20.928;2022-08-01T03:21:29;15.10;;;8.68;;
35326;SDS011;21436;52.348;20.928;2022-08-01T03:23:57;15.20;;;8.45;;
35326;SDS011;21436;52.348;20.928;2022-08-01T03:26:27;12.55;;;8.55;;
35326;SDS011;21436;52.348;20.928;2022-08-01T03:28:57;13.27;;;9.05;;
35326;SDS011;21436;52.348;20.928;2022-08-01T03:31:29;15.25;;;9.10;;
35326;SDS011;21436;52.348;20.928;2022-08-01T03:33:58;15.02;;;9.43;;
35326;SDS011;21436;52.348;20.928;2022-08-01T03:36:31;16.92;;;9.20;;
35326;SDS011;21436;52.348;20.928;2022-08-01T03:39:01;14.25;;;9.40;;
35326;SDS011;21436;52.348;20.928;2022-08-01T03:41:32;14.23;;;9.40;;
35326;SDS011;21436;52.348;20.928;2022-08-01T03:44:15;18.00;;;9.77;;
35326;SDS011;21436;52.348;20.928;2022-08-01T03:46:46;16.50;;;10.15;;
35326;SDS011;21436;52.348;20.928;2022-08-01T03:49:17;15.05;;;10.18;;
35326;SDS011;21436;52.348;20.928;2022-08-01T03:51:46;15.82;;;9.90;;
35326;SDS011;21436;52.348;20.928;2022-08-01T03:54:23;15.23;;;9.35;;
35326;SDS011;21436;52.348;20.928;2022-08-01T03:56:52;25.00;;;12.10;;
35326;SDS011;21436;52.348;20.928;2022-08-01T03:59:20;23.35;;;12.55;;
35326;SDS011;21436;52.348;20.928;2022-08-01T04:01:47;18.63;;;11.55;;
35326;SDS011;21436;52.348;20.928;2022-08-01T04:04:15;18.75;;;11.65;;
35326;SDS011;21436;52.348;20.928;2022-08-01T04:06:43;15.50;;;11.10;;
35326;SDS011;21436;52.348;20.928;2022-08-01T04:09:11;21.65;;;12.85;;
35326;SDS011;21436;52.348;20.928;2022-08-01T04:11:39;19.73;;;12.50;;
35326;SDS011;21436;52.348;20.928;2022-08-01T04:14:11;25.13;;;13.82;;
35326;SDS011;21436;52.348;20.928;2022-08-01T04:16:38;20.50;;;13.07;;
35326;SDS011;21436;52.348;20.928;2022-08-01T04:19:06;23.95;;;13.43;;
35326;SDS011;21436;52.348;20.928;2022-08-01T04:21:34;17.15;;;12.70;;
35326;SDS011;21436;52.348;20.928;2022-08-01T04:24:07;19.48;;;13.25;;
35326;SDS011;21436;52.348;20.928;2022-08-01T04:26:38;20.35;;;13.00;;
35326;SDS011;21436;52.348;20.928;2022-08-01T04:29:06;26.40;;;13.50;;
35326;SDS011;21436;52.348;20.928;2022-08-01T04:31:35;24.80;;;13.30;;
35326;SDS011;21436;52.348;20.928;2022-08-01T04:34:04;19.02;;;13.70;;
35326;SDS011;21436;52.348;20.928;2022-08-01T04:36:33;27.00;;;14.25;;
35326;SDS011;21436;52.348;20.928;2022-08-01T04:39:03;19.67;;;13.95;;
35326;SDS011;21436;52.348;20.928;2022-08-01T04:41:32;19.27;;;13.77;;
35326;SDS011;21436;52.348;20.928;2022-08-01T04:44:00;19.23;;;12.95;;
35326;SDS011;21436;52.348;20.928;2022-08-01T04:46:29;17.00;;;13.50;;
35326;SDS011;21436;52.348;20.928;2022-08-01T04:48:57;21.67;;;12.88;;
35326;SDS011;21436;52.348;20.928;2022-08-01T04:51:25;23.95;;;13.02;;
35326;SDS011;21436;52.348;20.928;2022-08-01T04:53:53;17.88;;;12.95;;
35326;SDS011;21436;52.348;20.928;2022-08-01T04:56:20;18.30;;;12.27;;
35326;SDS011;21436;52.348;20.928;2022-08-01T04:58:48;20.65;;;13.25;;
35326;SDS011;21436;52.348;20.928;2022-08-01T05:01:48;21.05;;;14.15;;
35326;SDS011;21436;52.348;20.928;2022-08-01T05:04:16;20.13;;;13.27;;
35326;SDS011;21436;52.348;20.928;2022-08-01T05:06:43;19.23;;;13.02;;
35326;SDS011;21436;52.348;20.928;2022-08-01T05:09:11;19.25;;;12.30;;
35326;SDS011;21436;52.348;20.928;2022-08-01T05:11:38;20.48;;;13.25;;
35326;SDS011;21436;52.348;20.928;2022-08-01T05:14:06;20.55;;;13.20;;
35326;SDS011;21436;52.348;20.928;2022-08-01T05:16:33;18.75;;;13.48;;
35326;SDS011;21436;52.348;20.928;2022-08-01T05:19:01;25.00;;;14.13;;
35326;SDS011;21436;52.348;20.928;2022-08-01T05:21:29;19.77;;;14.63;;
35326;SDS011;21436;52.348;20.928;2022-08-01T05:23:57;25.35;;;16.38;;
35326;SDS011;21436;52.348;20.928;2022-08-01T05:26:25;21.42;;;14.32;;
35326;SDS011;21436;52.348;20.928;2022-08-01T05:28:52;21.85;;;14.23;;
35326;SDS011;21436;52.348;20.928;2022-08-01T05:31:20;18.10;;;14.10;;
35326;SDS011;21436;52.348;20.928;2022-08-01T05:33:47;23.85;;;14.20;;
35326;SDS011;21436;52.348;20.928;2022-08-01T05:36:15;17.65;;;12.88;;
35326;SDS011;21436;52.348;20.928;2022-08-01T05:38:43;22.00;;;12.60;;
35326;SDS011;21436;52.348;20.928;2022-08-01T05:41:10;21.50;;;12.40;;
35326;SDS011;21436;52.348;20.928;2022-08-01T05:43:38;19.75;;;13.10;;
35326;SDS011;21436;52.348;20.928;2022-08-01T05:46:05;15.25;;;12.07;;
35326;SDS011;21436;52.348;20.928;2022-08-01T05:48:33;14.30;;;10.70;;
35326;SDS011;21436;52.348;20.928;2022-08-01T05:51:01;19.73;;;10.70;;
35326;SDS011;21436;52.348;20.928;2022-08-01T05:53:29;14.98;;;9.90;;
35326;SDS011;21436;52.348;20.928;2022-08-01T05:56:02;11.20;;;9.32;;
35326;SDS011;21436;52.348;20.928;2022-08-01T05:58:29;11.13;;;8.93;;
35326;SDS011;21436;52.348;20.928;2022-08-01T06:00:57;11.07;;;8.32;;
35326;SDS011;21436;52.348;20.928;2022-08-01T06:03:25;14.15;;;7.75;;
35326;SDS011;21436;52.348;20.928;2022-08-01T06:05:53;14.88;;;7.10;;
35326;SDS011;21436;52.348;20.928;2022-08-01T06:08:20;9.55;;;6.07;;
35326;SDS011;21436;52.348;20.928;2022-08-01T06:10:48;10.98;;;6.25;;
35326;SDS011;21436;52.348;20.928;2022-08-01T06:13:17;11.50;;;6.15;;
35326;SDS011;21436;52.348;20.928;2022-08-01T06:15:46;10.52;;;5.85;;
35326;SDS011;21436;52.348;20.928;2022-08-01T06:18:14;7.07;;;6.03;;
35326;SDS011;21436;52.348;20.928;2022-08-01T06:20:41;7.57;;;5.30;;
35326;SDS011;21436;52.348;20.928;2022-08-01T06:23:09;7.32;;;4.65;;
35326;SDS011;21436;52.348;20.928;2022-08-01T06:25:58;5.43;;;4.28;;
35326;SDS011;21436;52.348;20.928;2022-08-01T06:28:26;6.22;;;4.65;;
35326;SDS011;21436;52.348;20.928;2022-08-01T06:30:53;8.65;;;4.70;;
35326;SDS011;21436;52.348;20.928;2022-08-01T06:33:21;9.38;;;4.45;;
35326;SDS011;21436;52.348;20.928;2022-08-01T06:35:49;6.93;;;4.93;;
35326;SDS011;21436;52.348;20.928;2022-08-01T06:38:17;9.55;;;5.07;;
35326;SDS011;21436;52.348;20.928;2022-08-01T06:40:44;4.20;;;3.58;;
35326;SDS011;21436;52.348;20.928;2022-08-01T06:43:12;6.03;;;4.03;;
35326;SDS011;21436;52.348;20.928;2022-08-01T06:45:40;7.38;;;3.35;;
35326;SDS011;21436;52.348;20.928;2022-08-01T06:48:08;7.70;;;3.15;;
35326;SDS011;21436;52.348;20.928;2022-08-01T06:50:35;7.15;;;3.38;;
35326;SDS011;21436;52.348;20.928;2022-08-01T06:53:03;8.73;;;3.53;;
35326;SDS011;21436;52.348;20.928;2022-08-01T06:55:31;6.80;;;2.95;;
35326;SDS011;21436;52.348;20.928;2022-08-01T06:57:59;5.13;;;3.55;;
35326;SDS011;21436;52.348;20.928;2022-08-01T07:00:26;5.70;;;3.50;;
35326;SDS011;21436;52.348;20.928;2022-08-01T07:02:55;6.05;;;3.00;;
35326;SDS011;21436;52.348;20.928;2022-08-01T07:05:24;5.80;;;3.20;;
35326;SDS011;21436;52.348;20.928;2022-08-01T07:07:51;8.88;;;3.17;;
35326;SDS011;21436;52.348;20.928;2022-08-01T07:10:19;7.00;;;3.25;;
35326;SDS011;21436;52.348;20.928;2022-08-01T07:12:48;6.43;;;2.90;;
35326;SDS011;21436;52.348;20.928;2022-08-01T07:15:15;6.47;;;3.10;;
35326;SDS011;21436;52.348;20.928;2022-08-01T07:17:43;5.82;;;2.45;;
35326;SDS011;21436;52.348;20.928;2022-08-01T07:20:11;4.85;;;2.70;;
35326;SDS011;21436;52.348;20.928;2022-08-01T07:22:42;6.50;;;2.35;;
35326;SDS011;21436;52.348;20.928;2022-08-01T07:25:13;8.05;;;2.53;;
35326;SDS011;21436;52.348;20.928;2022-08-01T07:27:41;3.88;;;2.63;;
35326;SDS011;21436;52.348;20.928;2022-08-01T07:30:09;6.43;;;2.30;;
35326;SDS011;21436;52.348;20.928;2022-08-01T07:32:37;8.15;;;2.03;;
35326;SDS011;21436;52.348;20.928;2022-08-01T07:35:04;5.47;;;2.35;;
35326;SDS011;21436;52.348;20.928;2022-08-01T07:37:32;4.25;;;2.22;;
35326;SDS011;21436;52.348;20.928;2022-08-01T07:40:16;5.78;;;1.85;;
35326;SDS011;21436;52.348;20.928;2022-08-01T07:42:45;4.28;;;1.70;;
35326;SDS011;21436;52.348;20.928;2022-08-01T07:45:13;5.22;;;1.70;;
35326;SDS011;21436;52.348;20.928;2022-08-01T07:47:42;9.15;;;1.73;;
35326;SDS011;21436;52.348;20.928;2022-08-01T07:50:10;8.00;;;2.10;;
35326;SDS011;21436;52.348;20.928;2022-08-01T07:52:39;6.03;;;1.70;;
35326;SDS011;21436;52.348;20.928;2022-08-01T07:55:07;5.90;;;1.70;;
35326;SDS011;21436;52.348;20.928;2022-08-01T07:57:35;5.13;;;1.90;;
35326;SDS011;21436;52.348;20.928;2022-08-01T08:00:04;3.28;;;1.70;;
35326;SDS011;21436;52.348;20.928;2022-08-01T08:02:35;3.53;;;2.00;;
35326;SDS011;21436;52.348;20.928;2022-08-01T08:05:03;4.88;;;1.70;;
35326;SDS011;21436;52.348;20.928;2022-08-01T08:07:31;3.40;;;1.55;;
35326;SDS011;21436;52.348;20.928;2022-08-01T08:09:59;3.25;;;1.70;;
35326;SDS011;21436;52.348;20.928;2022-08-01T08:12:27;3.78;;;1.88;;
35326;SDS011;21436;52.348;20.928;2022-08-01T08:14:56;6.75;;;1.80;;
35326;SDS011;21436;52.348;20.928;2022-08-01T08:17:25;3.95;;;1.88;;
35326;SDS011;21436;52.348;20.928;2022-08-01T08:19:53;5.43;;;1.83;;
35326;SDS011;21436;52.348;20.928;2022-08-01T08:22:21;4.25;;;1.95;;
35326;SDS011;21436;52.348;20.928;2022-08-01T08:24:48;3.53;;;1.90;;
35326;SDS011;21436;52.348;20.928;2022-08-01T08:27:16;3.97;;;2.00;;
35326;SDS011;21436;52.348;20.928;2022-08-01T08:29:45;5.03;;;1.90;;
35326;SDS011;21436;52.348;20.928;2022-08-01T08:32:13;4.45;;;2.03;;
35326;SDS011;21436;52.348;20.928;2022-08-01T08:34:43;3.80;;;1.90;;
35326;SDS011;21436;52.348;20.928;2022-08-01T08:37:10;5.90;;;1.60;;
35326;SDS011;21436;52.348;20.928;2022-08-01T08:39:38;2.63;;;1.83;;
35326;SDS011;21436;52.348;20.928;2022-08-01T08:42:08;4.85;;;1.95;;
35326;SDS011;21436;52.348;20.928;2022-08-01T08:44:37;4.38;;;1.70;;
35326;SDS011;21436;52.348;20.928;2022-08-01T08:47:13;2.15;;;1.50;;
35326;SDS011;21436;52.348;20.928;2022-08-01T08:49:46;7.35;;;2.67;;
35326;SDS011;21436;52.348;20.928;2022-08-01T08:52:17;2.45;;;1.63;;
35326;SDS011;21436;52.348;20.928;2022-08-01T08:54:46;2.75;;;1.60;;
35326;SDS011;21436;52.348;20.928;2022-08-01T08:57:15;3.80;;;1.75;;
35326;SDS011;21436;52.348;20.928;2022-08-01T08:59:43;7.65;;;2.03;;
35326;SDS011;21436;52.348;20.928;2022-08-01T09:02:10;2.85;;;1.70;;
35326;SDS011;21436;52.348;20.928;2022-08-01T09:04:40;2.58;;;1.50;;
35326;SDS011;21436;52.348;20.928;2022-08-01T09:07:08;5.93;;;1.98;;
35326;SDS011;21436;52.348;20.928;2022-08-01T09:09:38;4.43;;;1.55;;
35326;SDS011;21436;52.348;20.928;2022-08-01T09:12:07;1.70;;;1.40;;
35326;SDS011;21436;52.348;20.928;2022-08-01T09:14:43;3.60;;;1.50;;
35326;SDS011;21436;52.348;20.928;2022-08-01T09:17:14;2.58;;;1.23;;
35326;SDS011;21436;52.348;20.928;2022-08-01T09:19:45;4.18;;;1.52;;
35326;SDS011;21436;52.348;20.928;2022-08-01T09:22:15;3.30;;;1.85;;
35326;SDS011;21436;52.348;20.928;2022-08-01T09:24:58;3.80;;;1.60;;
35326;SDS011;21436;52.348;20.928;2022-08-01T09:27:26;3.70;;;1.55;;
35326;SDS011;21436;52.348;20.928;2022-08-01T09:29:54;1.58;;;1.48;;
35326;SDS011;21436;52.348;20.928;2022-08-01T09:33:04;5.97;;;1.73;;
35326;SDS011;21436;52.348;20.928;2022-08-01T09:35:55;5.07;;;1.60;;
35326;SDS011;21436;52.348;20.928;2022-08-01T09:38:24;8.55;;;2.00;;
35326;SDS011;21436;52.348;20.928;2022-08-01T09:40:57;3.08;;;1.20;;
35326;SDS011;21436;52.348;20.928;2022-08-01T09:43:28;2.30;;;1.40;;
35326;SDS011;21436;52.348;20.928;2022-08-01T09:45:58;4.57;;;1.33;;
35326;SDS011;21436;52.348;20.928;2022-08-01T09:48:27;4.65;;;1.80;;
35326;SDS011;21436;52.348;20.928;2022-08-01T09:50:57;5.10;;;1.70;;
35326;SDS011;21436;52.348;20.928;2022-08-01T09:53:42;3.88;;;1.13;;
35326;SDS011;21436;52.348;20.928;2022-08-01T09:56:19;3.42;;;1.50;;
35326;SDS011;21436;52.348;20.928;2022-08-01T09:58:49;3.47;;;1.27;;
35326;SDS011;21436;52.348;20.928;2022-08-01T10:01:25;3.33;;;1.45;;
35326;SDS011;21436;52.348;20.928;2022-08-01T10:04:05;1.83;;;1.40;;
35326;SDS011;21436;52.348;20.928;2022-08-01T10:06:38;4.28;;;1.70;;
35326;SDS011;21436;52.348;20.928;2022-08-01T10:09:08;1.95;;;1.50;;
35326;SDS011;21436;52.348;20.928;2022-08-01T10:11:36;3.33;;;1.45;;
35326;SDS011;21436;52.348;20.928;2022-08-01T10:14:07;3.33;;;1.35;;
35326;SDS011;21436;52.348;20.928;2022-08-01T10:16:36;6.88;;;2.15;;
35326;SDS011;21436;52.348;20.928;2022-08-01T10:19:05;5.05;;;1.80;;
35326;SDS011;21436;52.348;20.928;2022-08-01T10:21:41;2.85;;;1.70;;
35326;SDS011;21436;52.348;20.928;2022-08-01T10:24:25;9.35;;;1.67;;
35326;SDS011;21436;52.348;20.928;2022-08-01T10:26:56;7.95;;;1.90;;
35326;SDS011;21436;52.348;20.928;2022-08-01T10:29:41;6.05;;;1.30;;
35326;SDS011;21436;52.348;20.928;2022-08-01T10:32:13;6.85;;;1.50;;
35326;SDS011;21436;52.348;20.928;2022-08-01T10:34:41;3.30;;;1.70;;
35326;SDS011;21436;52.348;20.928;2022-08-01T10:37:11;3.15;;;1.40;;
35326;SDS011;21436;52.348;20.928;2022-08-01T10:39:41;3.55;;;1.63;;
35326;SDS011;21436;52.348;20.928;2022-08-01T10:42:10;5.93;;;1.60;;
35326;SDS011;21436;52.348;20.928;2022-08-01T10:44:41;6.78;;;1.50;;
35326;SDS011;21436;52.348;20.928;2022-08-01T10:47:18;3.78;;;1.63;;
35326;SDS011;21436;52.348;20.928;2022-08-01T10:53:14;4.75;;;1.63;;
35326;SDS011;21436;52.348;20.928;2022-08-01T10:58:34;5.97;;;1.90;;
35326;SDS011;21436;52.348;20.928;2022-08-01T11:01:14;3.05;;;1.52;;
35326;SDS011;21436;52.348;20.928;2022-08-01T11:14:32;3.40;;;1.55;;
35326;SDS011;21436;52.348;20.928;2022-08-01T11:20:54;10.80;;;1.85;;
35326;SDS011;21436;52.348;20.928;2022-08-01T11:23:49;2.22;;;1.70;;
35326;SDS011;21436;52.348;20.928;2022-08-01T11:26:19;3.72;;;1.90;;
35326;SDS011;21436;52.348;20.928;2022-08-01T11:31:47;3.53;;;1.58;;
35326;SDS011;21436;52.348;20.928;2022-08-01T11:34:15;3.50;;;1.83;;
35326;SDS011;21436;52.348;20.928;2022-08-01T11:36:43;2.60;;;1.75;;
35326;SDS011;21436;52.348;20.928;2022-08-01T11:39:26;6.05;;;1.60;;
35326;SDS011;21436;52.348;20.928;2022-08-01T11:41:55;1.65;;;1.50;;
35326;SDS011;21436;52.348;20.928;2022-08-01T11:44:50;7.57;;;2.10;;
35326;SDS011;21436;52.348;20.928;2022-08-01T11:47:18;4.85;;;1.70;;
35326;SDS011;21436;52.348;20.928;2022-08-01T11:50:46;2.67;;;1.70;;
35326;SDS011;21436;52.348;20.928;2022-08-01T11:53:07;2.28;;;1.60;;
35326;SDS011;21436;52.348;20.928;2022-08-01T11:55:37;7.97;;;1.90;;
35326;SDS011;21436;52.348;20.928;2022-08-01T11:58:24;2.00;;;1.48;;
35326;SDS011;21436;52.348;20.928;2022-08-01T12:00:59;5.47;;;1.95;;
35326;SDS011;21436;52.348;20.928;2022-08-01T12:03:30;6.13;;;1.95;;
35326;SDS011;21436;52.348;20.928;2022-08-01T12:06:00;3.80;;;1.70;;
35326;SDS011;21436;52.348;20.928;2022-08-01T12:08:29;4.22;;;1.98;;
35326;SDS011;21436;52.348;20.928;2022-08-01T12:11:04;3.05;;;1.55;;
35326;SDS011;21436;52.348;20.928;2022-08-01T12:13:39;4.28;;;1.90;;
35326;SDS011;21436;52.348;20.928;2022-08-01T12:16:09;5.38;;;1.60;;
35326;SDS011;21436;52.348;20.928;2022-08-01T12:18:38;2.50;;;1.80;;
35326;SDS011;21436;52.348;20.928;2022-08-01T12:21:07;6.13;;;1.92;;
35326;SDS011;21436;52.348;20.928;2022-08-01T12:23:35;3.67;;;1.67;;
35326;SDS011;21436;52.348;20.928;2022-08-01T12:26:05;2.25;;;1.63;;
35326;SDS011;21436;52.348;20.928;2022-08-01T12:28:38;2.83;;;1.60;;
35326;SDS011;21436;52.348;20.928;2022-08-01T12:31:06;5.72;;;1.73;;
35326;SDS011;21436;52.348;20.928;2022-08-01T12:33:34;4.43;;;1.65;;
35326;SDS011;21436;52.348;20.928;2022-08-01T12:36:02;2.78;;;2.08;;
35326;SDS011;21436;52.348;20.928;2022-08-01T12:38:30;4.60;;;1.65;;
35326;SDS011;21436;52.348;20.928;2022-08-01T12:40:59;2.97;;;1.88;;
35326;SDS011;21436;52.348;20.928;2022-08-01T12:43:27;5.10;;;1.67;;
35326;SDS011;21436;52.348;20.928;2022-08-01T12:45:59;6.63;;;1.67;;
35326;SDS011;21436;52.348;20.928;2022-08-01T12:48:28;6.75;;;1.95;;
35326;SDS011;21436;52.348;20.928;2022-08-01T12:50:58;2.50;;;1.65;;
35326;SDS011;21436;52.348;20.928;2022-08-01T12:53:28;6.35;;;2.00;;
35326;SDS011;21436;52.348;20.928;2022-08-01T12:56:07;5.03;;;1.92;;
35326;SDS011;21436;52.348;20.928;2022-08-01T12:58:38;2.63;;;1.50;;
35326;SDS011;21436;52.348;20.928;2022-08-01T13:01:09;2.05;;;1.52;;
35326;SDS011;21436;52.348;20.928;2022-08-01T13:06:12;4.93;;;1.80;;
35326;SDS011;21436;52.348;20.928;2022-08-01T13:08:43;3.22;;;2.10;;
35326;SDS011;21436;52.348;20.928;2022-08-01T13:11:12;3.70;;;2.10;;
35326;SDS011;21436;52.348;20.928;2022-08-01T13:13:42;2.63;;;1.85;;
35326;SDS011;21436;52.348;20.928;2022-08-01T13:19:04;5.15;;;2.20;;
35326;SDS011;21436;52.348;20.928;2022-08-01T13:21:33;2.92;;;2.17;;
35326;SDS011;21436;52.348;20.928;2022-08-01T13:24:24;4.30;;;2.10;;
35326;SDS011;21436;52.348;20.928;2022-08-01T13:27:00;4.80;;;2.00;;
35326;SDS011;21436;52.348;20.928;2022-08-01T13:29:35;7.70;;;2.35;;
35326;SDS011;21436;52.348;20.928;2022-08-01T13:32:16;4.95;;;2.38;;
35326;SDS011;21436;52.348;20.928;2022-08-01T13:35:06;5.82;;;2.95;;
35326;SDS011;21436;52.348;20.928;2022-08-01T13:37:36;5.15;;;2.60;;
35326;SDS011;21436;52.348;20.928;2022-08-01T13:40:07;3.95;;;2.47;;
35326;SDS011;21436;52.348;20.928;2022-08-01T13:42:38;5.38;;;2.50;;
35326;SDS011;21436;52.348;20.928;2022-08-01T13:45:15;5.68;;;2.83;;
35326;SDS011;21436;52.348;20.928;2022-08-01T14:43:26;4.35;;;3.53;;
35326;SDS011;21436;52.348;20.928;2022-08-01T14:46:02;7.40;;;3.50;;
35326;SDS011;21436;52.348;20.928;2022-08-01T14:48:31;5.50;;;3.77;;
35326;SDS011;21436;52.348;20.928;2022-08-01T14:50:59;4.22;;;3.60;;
35326;SDS011;21436;52.348;20.928;2022-08-01T14:53:30;5.75;;;3.38;;
35326;SDS011;21436;52.348;20.928;2022-08-01T14:56:04;6.57;;;3.30;;
35326;SDS011;21436;52.348;20.928;2022-08-01T14:58:32;4.85;;;3.72;;
35326;SDS011;21436;52.348;20.928;2022-08-01T15:01:00;5.07;;;3.47;;
35326;SDS011;21436;52.348;20.928;2022-08-01T15:03:28;4.32;;;3.55;;
35326;SDS011;21436;52.348;20.928;2022-08-01T15:05:55;6.55;;;4.05;;
35326;SDS011;21436;52.348;20.928;2022-08-01T15:08:23;7.35;;;4.03;;
35326;SDS011;21436;52.348;20.928;2022-08-01T15:10:51;6.57;;;4.45;;
35326;SDS011;21436;52.348;20.928;2022-08-01T15:13:19;4.35;;;3.83;;
35326;SDS011;21436;52.348;20.928;2022-08-01T15:15:46;7.45;;;4.32;;
35326;SDS011;21436;52.348;20.928;2022-08-01T15:18:14;4.35;;;3.80;;
35326;SDS011;21436;52.348;20.928;2022-08-01T15:20:42;7.25;;;4.38;;
35326;SDS011;21436;52.348;20.928;2022-08-01T15:23:10;6.05;;;3.75;;
35326;SDS011;21436;52.348;20.928;2022-08-01T15:25:38;5.05;;;3.92;;
35326;SDS011;21436;52.348;20.928;2022-08-01T15:28:08;6.45;;;4.50;;
35326;SDS011;21436;52.348;20.928;2022-08-01T15:30:37;5.82;;;3.95;;
35326;SDS011;21436;52.348;20.928;2022-08-01T15:33:06;3.92;;;3.60;;
35326;SDS011;21436;52.348;20.928;2022-08-01T15:35:33;5.50;;;4.00;;
35326;SDS011;21436;52.348;20.928;2022-08-01T15:38:00;4.75;;;3.85;;
35326;SDS011;21436;52.348;20.928;2022-08-01T15:40:28;6.70;;;3.80;;
35326;SDS011;21436;52.348;20.928;2022-08-01T15:42:55;5.85;;;3.78;;
35326;SDS011;21436;52.348;20.928;2022-08-01T15:45:23;6.75;;;3.90;;
35326;SDS011;21436;52.348;20.928;2022-08-01T15:48:11;7.93;;;4.07;;
35326;SDS011;21436;52.348;20.928;2022-08-01T15:50:38;4.50;;;3.40;;
35326;SDS011;21436;52.348;20.928;2022-08-01T15:53:06;7.90;;;3.13;;
35326;SDS011;21436;52.348;20.928;2022-08-01T15:55:39;6.50;;;3.35;;
35326;SDS011;21436;52.348;20.928;2022-08-01T15:58:12;6.85;;;3.28;;
35326;SDS011;21436;52.348;20.928;2022-08-01T16:00:40;5.72;;;3.28;;
35326;SDS011;21436;52.348;20.928;2022-08-01T16:03:07;5.05;;;3.17;;
35326;SDS011;21436;52.348;20.928;2022-08-01T16:05:36;6.00;;;3.13;;
35326;SDS011;21436;52.348;20.928;2022-08-01T16:08:10;7.22;;;3.00;;
35326;SDS011;21436;52.348;20.928;2022-08-01T16:10:38;6.70;;;3.22;;
35326;SDS011;21436;52.348;20.928;2022-08-01T16:13:06;7.93;;;3.40;;
35326;SDS011;21436;52.348;20.928;2022-08-01T16:15:35;6.13;;;3.55;;
35326;SDS011;21436;52.348;20.928;2022-08-01T16:18:04;6.50;;;3.17;;
35326;SDS011;21436;52.348;20.928;2022-08-01T16:20:32;5.68;;;3.70;;
35326;SDS011;21436;52.348;20.928;2022-08-01T16:23:01;9.63;;;3.70;;